Latest Weather Observations for Melbourne

IDV60901

Issued at 3:55 pm EST Saturday 20 September 2014 (issued every 10 minutes, with the page automatically refreshed every 10 minutes)

About weather observations | Map of Melbourne area stations | Latest observations for Melbourne area | Other Formats
Station Details ID: 086071 Name: MELBOURNE REGIONAL OFFICE Lat: -37.81 Lon: 144.97 Height: 31.15 m
Data from the previous 72 hours. | See also: Recent months at Melbourne

* Apparent temperature (App Temp) for Melbourne is calculated using temperature observations collected at Melbourne and wind observations collected at Melbourne (Olympic Park), as wind observations are not currently provided for Melbourne.

Date/Time
EST
Tmp

°C
App
Tmp
°C
Dew
Point
°C
Rel
Hum
%
Delta-T

°C
Wind Press
QNH
hPa
Press
MSL
hPa
Rain
since
9 am
mm
Dir
 
Spd
km/h
Gust
km/h
Spd
kts
Gust
kts
20/03:30pm 15.8 12.3 7.0 56 4.3 SSW 15 - 8 - 1027.4 - 0.0
20/03:00pm 16.0 12.0 6.5 53 4.6 S 17 - 9 - 1027.2 1027.2 0.0
20/02:30pm 16.4 12.9 7.1 54 4.6 S 15 - 8 - 1027.1 - 0.0
20/02:00pm 16.8 12.5 7.1 52 4.8 S 19 - 10 - 1027.1 - 0.0
20/01:30pm 16.1 11.8 7.7 57 4.2 S 20 - 11 - 1027.1 - 0.0
20/01:00pm 16.6 12.7 7.3 54 4.6 S 17 - 9 - 1027.2 - 0.0
20/12:30pm 15.5 11.7 7.6 59 3.9 SSW 17 - 9 - 1027.5 - 0.0
20/12:00pm 15.4 12.4 7.5 59 3.9 SSW 13 - 7 - 1027.6 1027.6 0.0
20/11:30am 14.2 11.2 7.5 64 3.3 S 13 - 7 - 1027.8 - 0.0
20/11:00am 14.0 10.3 7.9 66 3.0 SSW 17 - 9 - 1028.0 - 0.0
20/10:30am 14.4 11.5 8.2 66 3.1 SW 13 - 7 - 1028.0 - 0.0
20/10:00am 14.2 11.2 7.9 66 3.1 SSW 13 - 7 - 1028.2 - 0.0
20/09:30am 13.0 10.6 8.6 74 2.2 SSW 11 - 6 - 1028.2 - 0.0
20/09:00am 13.0 10.4 7.7 70 2.6 S 11 - 6 - 1028.0 1028.0 0.2
20/08:30am 12.6 10.6 8.6 76 2.0 S 9 - 5 - 1027.8 - 0.2
20/08:00am 12.4 9.9 8.1 75 2.1 S 11 - 6 - 1027.5 - 0.2
20/07:30am 11.7 10.3 8.9 83 1.4 SSW 6 - 3 - 1027.2 - 0.2
20/07:00am 11.2 9.7 9.0 86 1.1 SSW 7 - 4 - 1026.9 - 0.2
20/06:30am 11.3 10.7 7.6 78 1.8 CALM 0 - 0 - 1026.5 - 0.2
20/06:00am 11.1 9.7 7.1 76 1.9 SW 4 - 2 - 1026.2 1026.2 0.2
20/05:30am 10.8 8.5 5.8 71 2.3 W 7 - 4 - 1025.8 - 0.2
20/05:00am 10.5 8.4 5.7 72 2.2 W 6 - 3 - 1025.4 - 0.2
20/04:30am 10.5 8.3 5.5 71 2.3 W 6 - 3 - 1025.0 - 0.2
20/04:00am 10.7 9.0 5.9 72 2.2 WNW 4 - 2 - 1025.1 - 0.2
20/03:30am 11.1 10.1 5.7 69 2.5 CALM 0 - 0 - 1025.0 - 0.2
20/03:00am 11.2 9.9 6.0 70 2.4 SW 2 - 1 - 1024.9 1024.9 0.2
20/02:30am 11.5 8.9 6.1 69 2.5 W 9 - 5 - 1025.2 - 0.2
20/02:00am 11.4 9.3 6.0 69 2.5 W 6 - 3 - 1025.3 - 0.2
20/01:30am 11.5 10.7 6.6 72 2.3 CALM 0 - 0 - 1025.4 - 0.2
20/01:00am 11.5 9.5 6.1 69 2.5 SW 6 - 3 - 1025.6 - 0.2
20/12:30am 11.7 9.1 6.1 68 2.6 WSW 9 - 5 - 1025.4 - 0.2
20/12:00am 12.3 11.2 6.8 69 2.6 SSW 2 - 1 - 1025.2 1025.2 0.2
 
Date/Time
EST
Tmp

°C
App
Tmp
°C
Dew
Point
°C
Rel
Hum
%
Delta-T

°C
Wind Press
QNH
hPa
Press
MSL
hPa
Rain
since
9 am
mm
Dir
 
Spd
km/h
Gust
km/h
Spd
kts
Gust
kts
19/11:30pm 12.7 10.6 6.8 67 2.8 SW 7 - 4 - 1025.3 - 0.2
19/11:00pm 12.8 10.4 7.0 68 2.8 SSW 9 - 5 - 1025.5 - 0.2
19/10:30pm 13.0 11.0 7.0 67 2.9 SSW 7 - 4 - 1025.7 - 0.2
19/10:00pm 12.9 11.0 6.6 65 3.0 SW 6 - 3 - 1025.8 - 0.2
19/09:30pm 13.0 10.3 5.7 61 3.4 S 9 - 5 - 1025.8 - 0.2
19/09:00pm 12.9 10.3 5.9 62 3.3 S 9 - 5 - 1025.7 1025.7 0.2
19/08:30pm 13.2 10.6 6.0 61 3.4 S 9 - 5 - 1025.5 - 0.2
19/08:00pm 13.2 10.2 6.2 62 3.3 S 11 - 6 - 1025.4 - 0.2
19/07:30pm 13.1 10.5 7.6 69 2.7 S 11 - 6 - 1025.1 - 0.2
19/07:00pm 13.2 10.9 7.4 68 2.8 SSW 9 - 5 - 1024.8 - 0.2
19/06:30pm 13.1 10.7 7.1 67 2.9 S 9 - 5 - 1024.6 - 0.2
19/06:00pm 13.6 11.2 7.0 64 3.2 S 9 - 5 - 1024.6 1024.6 0.2
19/05:30pm 14.2 11.2 7.9 66 3.1 S 13 - 7 - 1024.2 - 0.2
19/05:00pm 14.5 11.3 6.9 60 3.7 S 13 - 7 - 1024.0 - 0.2
19/04:30pm 14.2 11.3 6.7 60 3.6 S 11 - 6 - 1023.9 - 0.2
19/04:00pm 15.1 11.6 7.1 59 3.9 S 15 - 8 - 1023.8 - 0.2
19/03:30pm 14.8 12.4 6.8 58 3.9 S 9 - 5 - 1023.6 - 0.2
19/03:00pm 14.5 11.7 7.1 61 3.6 S 11 - 6 - 1023.7 1023.7 0.2
19/02:30pm 15.1 12.1 5.9 54 4.4 S 11 - 6 - 1023.7 - 0.2
19/02:00pm 14.8 11.7 5.7 54 4.3 S 11 - 6 - 1023.8 - 0.2
19/01:30pm 15.5 12.1 5.9 52 4.6 SSE 13 - 7 - 1023.9 - 0.2
19/01:00pm 14.6 12.0 6.0 56 4.1 S 9 - 5 - 1024.2 - 0.2
19/12:30pm 14.7 11.7 6.1 56 4.1 SSW 11 - 6 - 1024.5 - 0.2
19/12:00pm 14.4 10.9 5.5 55 4.2 SSW 13 - 7 - 1024.7 1024.7 0.2
19/11:30am 15.0 12.3 5.7 53 4.4 SSW 9 - 5 - 1024.7 - 0.0
19/11:00am 15.1 12.1 5.9 54 4.4 SSW 11 - 6 - 1024.8 - 0.0
19/10:30am 14.2 10.8 6.0 58 3.9 SW 13 - 7 - 1025.0 - 0.0
19/10:00am 14.2 11.1 5.7 56 4.0 SSW 11 - 6 - 1025.1 - 0.0
19/09:30am 13.8 10.3 5.5 57 3.9 SSW 13 - 7 - 1025.1 - 0.0
19/09:00am 12.1 9.0 5.6 64 3.0 W 11 - 6 - 1025.2 1025.2 1.4
19/08:30am 10.5 8.2 5.0 69 2.5 W 6 - 3 - 1025.2 - 1.4
19/08:00am 9.4 6.9 4.7 72 2.1 W 7 - 4 - 1025.2 - 1.4
19/07:30am 8.7 6.1 4.1 73 2.0 NNW 7 - 4 - 1025.0 - 1.4
19/07:00am 8.7 6.3 4.1 73 2.0 W 6 - 3 - 1024.9 - 1.4
19/06:30am 9.0 7.0 4.5 73 2.0 W 4 - 2 - 1024.6 - 1.4
19/06:00am 9.0 7.0 4.5 73 2.0 W 4 - 2 - 1024.3 1024.3 1.4
19/05:30am 9.3 8.0 4.3 71 2.2 CALM 0 - 0 - 1024.1 - 1.4
19/05:00am 9.4 7.0 4.2 70 2.3 W 6 - 3 - 1023.9 - 1.4
19/04:30am 9.0 6.9 3.7 69 2.3 SSW 4 - 2 - 1023.8 - 1.4
19/04:00am 8.9 7.0 3.0 66 2.5 SSW 2 - 1 - 1023.8 - 1.4
19/03:30am 8.7 7.2 3.0 67 2.4 CALM 0 - 0 - 1023.7 - 1.4
19/03:00am 8.7 6.8 2.8 66 2.5 WSW 2 - 1 - 1023.7 1023.7 1.4
19/02:30am 8.7 7.2 2.8 66 2.5 CALM 0 - 0 - 1023.9 - 1.4
19/02:00am 9.2 6.9 2.8 64 2.7 SW 4 - 2 - 1024.1 - 1.4
19/01:30am 9.0 6.7 2.9 65 2.6 W 4 - 2 - 1024.3 - 1.4
19/01:00am 8.9 6.3 3.0 66 2.5 WSW 6 - 3 - 1024.6 - 1.4
19/12:30am 9.1 7.2 3.0 65 2.6 SW 2 - 1 - 1024.8 - 1.4
19/12:00am 9.4 6.8 3.1 65 2.7 WSW 6 - 3 - 1024.8 1024.8 1.4
 
Date/Time
EST
Tmp

°C
App
Tmp
°C
Dew
Point
°C
Rel
Hum
%
Delta-T

°C
Wind Press
QNH
hPa
Press
MSL
hPa
Rain
since
9 am
mm
Dir
 
Spd
km/h
Gust
km/h
Spd
kts
Gust
kts
18/11:30pm 9.9 7.3 3.2 63 2.9 W 6 - 3 - 1024.9 - 1.4
18/11:00pm 10.2 7.5 3.5 63 2.9 W 7 - 4 - 1025.1 - 1.4
18/10:30pm 10.8 7.8 4.0 63 3.0 W 9 - 5 - 1025.1 - 1.4
18/10:00pm 11.7 9.0 5.6 66 2.8 WSW 9 - 5 - 1024.9 - 1.4
18/09:30pm 11.4 8.7 5.8 68 2.6 SW 9 - 5 - 1024.8 - 1.4
18/09:00pm 12.0 8.8 5.3 63 3.1 SSW 11 - 6 - 1024.7 1024.7 1.4
18/08:30pm 12.2 8.5 4.2 58 3.6 S 13 - 7 - 1024.5 - 1.4
18/08:00pm 12.1 8.8 4.3 59 3.5 S 11 - 6 - 1024.5 - 1.4
18/07:30pm 12.1 8.3 3.8 57 3.7 S 13 - 7 - 1024.4 - 1.4
18/07:00pm 11.9 7.8 4.1 59 3.5 S 15 - 8 - 1024.0 - 1.4
18/06:30pm 12.2 8.3 3.6 55 3.8 SSW 13 - 7 - 1023.9 - 1.4
18/06:00pm 12.2 8.0 3.9 57 3.7 S 15 - 8 - 1023.7 1023.7 1.4
18/05:30pm 12.6 8.9 4.4 57 3.7 S 13 - 7 - 1023.4 - 1.4
18/05:00pm 12.9 8.9 5.1 59 3.6 S 15 - 8 - 1023.1 - 1.4
18/04:30pm 12.7 9.4 6.4 65 3.0 S 13 - 7 - 1022.9 - 1.4
18/04:00pm 13.1 9.7 5.9 61 3.4 S 13 - 7 - 1022.8 - 1.4
18/03:30pm 13.7 9.3 6.6 62 3.4 S 19 - 10 - 1022.6 - 1.4
18/03:00pm 13.3 9.0 6.9 65 3.1 S 19 - 10 - 1022.7 1022.7 1.4
18/02:30pm 13.6 10.1 7.0 64 3.2 SSW 15 - 8 - 1022.5 - 1.4
18/02:00pm 12.4 8.9 8.8 79 1.8 S 17 - 9 - 1022.6 - 1.4
18/01:30pm 12.5 10.1 6.9 68 2.7 SW 9 - 5 - 1022.6 - 0.2
18/01:00pm 12.3 9.8 6.4 67 2.8 S 9 - 5 - 1022.7 - 0.2
18/12:30pm 13.1 10.0 5.4 59 3.6 SSW 11 - 6 - 1022.9 - 0.2
18/12:00pm 12.4 9.3 5.5 63 3.2 SW 11 - 6 - 1023.0 1023.0 0.2
18/11:30am 11.7 9.1 7.6 76 2.0 SSW 11 - 6 - 1023.1 - 0.2
18/11:00am 12.5 9.3 5.1 60 3.4 SW 11 - 6 - 1023.0 - 0.2
18/10:30am 12.2 9.7 6.5 68 2.7 SW 9 - 5 - 1023.1 - 0.2
18/10:00am 10.4 8.3 6.8 78 1.7 SSW 7 - 4 - 1023.1 - 0.2
18/09:30am 10.9 7.2 4.2 63 3.0 SW 13 - 7 - 1022.9 - 0.0
18/09:00am 10.9 8.0 4.4 64 2.9 SW 9 - 5 - 1022.7 1022.7 0.4
18/08:30am 9.9 7.4 4.8 70 2.3 WSW 7 - 4 - 1022.6 - 0.4
18/08:00am 8.9 6.4 4.8 75 1.8 W 7 - 4 - 1022.4 - 0.4
18/07:30am 8.4 5.8 4.3 75 1.8 SW 7 - 4 - 1022.1 - 0.4
18/07:00am 8.4 5.8 4.3 75 1.8 W 7 - 4 - 1021.6 - 0.4
18/06:30am 8.1 5.5 4.2 76 1.7 WSW 7 - 4 - 1021.3 - 0.4
18/06:00am 7.9 4.1 4.0 76 1.7 WNW 13 - 7 - 1021.0 1021.0 0.4
18/05:30am 7.7 4.7 4.0 77 1.6 W 9 - 5 - 1020.6 - 0.4
18/05:00am 7.8 5.2 4.1 77 1.6 W 7 - 4 - 1020.2 - 0.4
18/04:30am 8.0 4.6 4.1 76 1.7 W 11 - 6 - 1020.0 - 0.4
18/04:00am 8.0 4.9 3.8 75 1.8 W 9 - 5 - 1019.8 - 0.4
18/03:30am 7.8 4.7 3.8 76 1.7 W 9 - 5 - 1019.9 - 0.4
18/03:00am 8.3 5.3 4.2 75 1.8 W 9 - 5 - 1019.8 1019.8 0.4
18/02:30am 8.4 4.6 4.0 74 1.9 W 13 - 7 - 1019.6 - 0.4
18/02:00am 8.6 5.1 3.7 71 2.1 W 11 - 6 - 1019.8 - 0.4
18/01:30am 8.2 4.7 3.5 72 2.0 W 11 - 6 - 1019.7 - 0.4
18/01:00am 8.1 4.6 3.7 74 1.9 WNW 11 - 6 - 1019.8 - 0.4
18/12:30am 8.1 4.6 3.4 72 2.0 W 11 - 6 - 1020.0 - 0.4
18/12:00am 8.4 5.3 3.5 71 2.1 WNW 9 - 5 - 1019.9 1019.9 0.4
 
Date/Time
EST
Tmp

°C
App
Tmp
°C
Dew
Point
°C
Rel
Hum
%
Delta-T

°C
Wind Press
QNH
hPa
Press
MSL
hPa
Rain
since
9 am
mm
Dir
 
Spd
km/h
Gust
km/h
Spd
kts
Gust
kts
17/11:30pm 8.4 4.5 3.5 71 2.1 W 13 - 7 - 1019.8 - 0.4
17/11:00pm 8.7 5.9 3.3 69 2.3 W 7 - 4 - 1019.7 - 0.4
17/10:30pm 8.8 5.7 3.4 69 2.3 WNW 9 - 5 - 1019.5 - 0.4
17/10:00pm 9.2 5.7 3.4 67 2.5 W 11 - 6 - 1019.6 - 0.4
17/09:30pm 9.8 6.2 3.1 63 2.9 W 11 - 6 - 1019.4 - 0.4
17/09:00pm 10.2 6.2 3.0 61 3.1 W 13 - 7 - 1019.0 1019.0 0.4
17/08:30pm 10.3 6.7 3.1 61 3.1 W 11 - 6 - 1018.8 - 0.4
17/08:00pm 10.4 6.9 3.5 62 3.0 W 11 - 6 - 1018.6 - 0.4
17/07:30pm 10.7 7.2 3.4 60 3.2 W 11 - 6 - 1018.3 - 0.4
17/07:00pm 10.9 7.1 3.9 62 3.1 W 13 - 7 - 1018.1 - 0.4
17/06:30pm 11.1 8.2 4.4 63 3.0 SSW 9 - 5 - 1017.6 - 0.4
17/06:00pm 12.5 9.1 2.1 49 4.5 SW 9 - 5 - 1017.3 1017.3 0.2
17/05:30pm 12.6 8.7 3.4 53 4.1 SSW 13 - 7 - 1016.8 - 0.2
17/05:00pm 12.7 9.1 5.1 60 3.5 SSW 13 - 7 - 1016.4 - 0.2
17/04:30pm 13.1 9.2 3.2 51 4.4 W 13 - 7 - 1015.8 - 0.2
17/04:00pm 12.7 9.0 6.4 65 3.0 SSW 15 - 8 - 1015.6 - 0.2

Latest Capital City Observations: Canberra | Sydney | Melbourne | Brisbane | Adelaide | Perth | Hobart | Darwin

Other Formats:

Comma delimited format used in spreadsheet applications
http://www.bom.gov.au/fwo/IDV60901/IDV60901.94868.axf

JavaScript Object Notation format (JSON) in row-major order
http://www.bom.gov.au/fwo/IDV60901/IDV60901.94868.json